Time;durP1;ratioP1;P1;durP2;ratioP2;P2;SDS_P1;SDS_P2;PMS_P1;PMS_P2;Temp;Humidity;BMP_temperature;BMP_pressure;BME280_temperature;BME280_humidity;BME280_pressure;Samples;Min_cycle;Max_cycle;Signal;HPM_P1;HPM_P2
2021/12/05 00:18:30;;;;;;;;;;;;;;;1.60;72.46;98989.52;1727652;81;20173;-83
2021/12/05 00:23:20;;;;;;;;;;;;;;;1.63;72.54;98994.95;1750831;80;20188;-84
2021/12/05 00:25:48;;;;;;;;;;;;;;;1.63;72.49;99003.58;1747638;80;20216;-84
2021/12/05 00:29:08;;;;;;;;;;;;;;;1.62;72.48;98994.14;1750816;80;20215;-85
2021/12/05 00:46:28;;;;;;;;;;;;;;;1.43;73.32;99015.17;1795903;79;20118;-83
2021/12/05 00:57:14;;;;;;;;;;;;;;;1.45;73.36;99017.65;1804099;78;20114;-83
2021/12/05 01:04:58;;;;;;;;;;;;;;;1.36;73.92;99033.52;1801766;77;20171;-86
2021/12/05 01:07:24;;;;;;;;;;;;;;;1.36;73.91;99030.92;1720328;81;20208;-86
2021/12/05 01:09:50;;;;;;;;;;;;;;;1.34;74.06;99038.03;1743645;81;20662;-87
2021/12/05 01:12:33;;;;;;;;;;;;;;;1.34;74.14;99045.02;1726752;81;20153;-88
2021/12/05 01:15:03;;;;;;;;;;;;;;;1.35;74.17;99046.20;1725852;79;20138;-88
2021/12/05 01:17:33;;;;;;;;;;;;;;;1.36;74.08;99045.23;1751336;80;20155;-86
2021/12/05 01:19:58;;;;;;;;;;;;;;;1.29;74.32;99055.80;1747523;80;20641;-88
2021/12/05 01:22:24;;;;;;;;;;;;;;;1.33;74.16;99051.98;1746602;80;21314;-88
2021/12/05 01:27:43;;;;;;;;;;;;;;;1.31;74.05;99051.28;1734028;81;20178;-86
2021/12/05 01:30:13;;;;;;;;;;;;;;;1.33;74.11;99046.77;1729261;82;20215;-86
2021/12/05 01:35:49;;;;;;;;;;;;;;;1.26;74.25;99048.23;1739021;82;20183;-90
2021/12/05 01:40:51;;;;;;;;;;;;;;;1.30;74.09;99030.12;1745884;81;20465;-87
2021/12/05 01:46:31;;;;;;;;;;;;;;;1.24;74.45;99034.06;1738616;81;20154;-87
2021/12/05 01:51:55;;;;;;;;;;;;;;;1.33;74.48;99028.57;1739285;81;20150;-87
2021/12/05 01:54:27;;;;;;;;;;;;;;;1.34;74.33;99025.52;1731715;81;20186;-86
2021/12/05 02:02:41;;;;;;;;;;;;;;;1.41;74.26;99024.89;1675870;84;20131;-86
2021/12/05 02:31:57;;;;;;;;;;;;;;;1.50;74.47;99021.17;1811310;78;20129;-86
2021/12/05 02:34:25;;;;;;;;;;;;;;;1.53;74.24;99029.55;1802409;78;20527;-86
2021/12/05 02:41:56;;;;;;;;;;;;;;;1.42;74.37;99034.32;1783692;78;20453;-84
2021/12/05 02:44:26;;;;;;;;;;;;;;;1.50;74.13;99030.28;1783105;78;20749;-85
2021/12/05 02:47:04;;;;;;;;;;;;;;;1.42;74.31;99023.10;1771504;78;20151;-85
2021/12/05 02:49:29;;;;;;;;;;;;;;;1.33;74.72;99025.97;1767847;78;20439;-83
2021/12/05 02:52:02;;;;;;;;;;;;;;;1.37;74.49;99027.38;1790367;78;20172;-82
2021/12/05 02:54:27;;;;;;;;;;;;;;;1.35;74.61;99029.29;1757274;78;20723;-85
2021/12/05 02:56:53;;;;;;;;;;;;;;;1.38;74.69;99020.39;1787294;78;20081;-84
2021/12/05 02:59:29;;;;;;;;;;;;;;;1.38;74.74;99016.03;1761023;78;20277;-84
2021/12/05 03:01:58;;;;;;;;;;;;;;;1.44;74.69;99021.19;1754166;77;20156;-85
2021/12/05 03:04:24;;;;;;;;;;;;;;;1.33;74.83;99021.25;1787613;78;20152;-84
2021/12/05 03:06:53;;;;;;;;;;;;;;;1.42;74.62;99022.62;1768292;78;20171;-85
2021/12/05 03:09:19;;;;;;;;;;;;;;;1.43;74.40;99017.77;1785386;78;20178;-87
2021/12/05 03:11:46;;;;;;;;;;;;;;;1.26;74.73;99020.94;1788555;78;20211;-85
2021/12/05 03:14:11;;;;;;;;;;;;;;;1.28;74.71;99011.70;1784198;78;20207;-85
2021/12/05 03:16:39;;;;;;;;;;;;;;;1.04;75.23;99007.06;1787740;78;20187;-84
2021/12/05 03:19:08;;;;;;;;;;;;;;;0.98;75.57;99010.16;1765681;78;21055;-84
2021/12/05 03:21:36;;;;;;;;;;;;;;;0.86;76.20;99013.25;1783445;78;20191;-85
2021/12/05 03:24:02;;;;;;;;;;;;;;;0.81;76.41;99011.95;1772233;78;20215;-86
2021/12/05 03:26:30;;;;;;;;;;;;;;;0.57;77.42;99017.33;1768879;78;20187;-83
2021/12/05 03:28:56;;;;;;;;;;;;;;;0.47;77.67;99013.34;1777935;78;20152;-87
2021/12/05 03:31:31;;;;;;;;;;;;;;;0.48;78.05;99014.97;1768209;78;21996;-83
2021/12/05 03:33:56;;;;;;;;;;;;;;;0.42;78.35;99015.45;1774856;78;20152;-84
2021/12/05 03:36:22;;;;;;;;;;;;;;;0.31;78.91;99008.49;1773179;78;20139;-85
2021/12/05 03:38:48;;;;;;;;;;;;;;;0.28;79.25;99004.83;1779786;78;20167;-85
2021/12/05 03:41:14;;;;;;;;;;;;;;;0.15;79.68;99004.96;1773423;78;20160;-86
2021/12/05 03:43:41;;;;;;;;;;;;;;;0.16;80.22;99010.03;1766128;79;21045;-83
2021/12/05 03:46:09;;;;;;;;;;;;;;;0.16;80.14;99006.62;1740103;81;20919;-86
2021/12/05 03:48:39;;;;;;;;;;;;;;;0.12;80.31;99011.69;1726599;80;20168;-84
2021/12/05 03:51:06;;;;;;;;;;;;;;;0.22;79.88;99025.63;1764099;80;20267;-83
2021/12/05 03:53:32;;;;;;;;;;;;;;;0.30;79.61;99027.15;1728129;81;20216;-84
2021/12/05 03:55:57;;;;;;;;;;;;;;;0.43;79.51;99026.20;1764435;79;21903;-85
2021/12/05 03:58:26;;;;;;;;;;;;;;;0.57;78.92;99020.75;1757715;81;20132;-86
2021/12/05 04:00:55;;;;;;;;;;;;;;;0.62;78.41;99018.63;1754503;81;20136;-84
2021/12/05 04:03:22;;;;;;;;;;;;;;;0.71;78.05;99024.41;1761563;81;21034;-83
2021/12/05 04:05:49;;;;;;;;;;;;;;;0.75;77.71;99017.67;1761196;81;20184;-83
2021/12/05 04:08:16;;;;;;;;;;;;;;;0.74;77.52;99017.30;1760281;80;21089;-85
2021/12/05 04:10:45;;;;;;;;;;;;;;;0.70;77.68;99016.25;1761563;81;20132;-85
2021/12/05 04:13:11;;;;;;;;;;;;;;;0.77;77.59;99024.86;1760992;81;20531;-85
2021/12/05 04:15:38;;;;;;;;;;;;;;;0.73;77.55;99035.98;1762524;80;20184;-85
2021/12/05 04:18:04;;;;;;;;;;;;;;;0.77;77.60;99033.95;1760395;81;20278;-86
2021/12/05 04:20:31;;;;;;;;;;;;;;;0.85;77.36;99031.56;1757845;80;21002;-84
2021/12/05 04:23:00;;;;;;;;;;;;;;;0.87;77.01;99037.45;1760466;79;20503;-86
2021/12/05 04:25:28;;;;;;;;;;;;;;;0.89;76.91;99036.40;1762831;80;20140;-84
2021/12/05 04:27:57;;;;;;;;;;;;;;;0.88;76.78;99020.44;1722099;82;20310;-84
2021/12/05 04:30:30;;;;;;;;;;;;;;;0.88;76.67;99016.55;1677206;83;20209;-84
2021/12/05 04:33:00;;;;;;;;;;;;;;;0.87;76.58;99024.46;1678028;83;20637;-86
2021/12/05 04:35:26;;;;;;;;;;;;;;;0.87;76.64;99030.51;1703011;82;20240;-88
2021/12/05 04:37:55;;;;;;;;;;;;;;;0.87;76.55;99038.30;1702830;83;21019;-86
2021/12/05 04:40:24;;;;;;;;;;;;;;;0.85;76.68;99044.56;1699934;83;20149;-87
2021/12/05 04:42:51;;;;;;;;;;;;;;;0.82;76.91;99044.31;1731743;80;20178;-89
2021/12/05 04:45:20;;;;;;;;;;;;;;;0.87;76.83;99036.16;1749126;80;21089;-86
2021/12/05 04:47:49;;;;;;;;;;;;;;;0.82;76.79;99042.20;1741624;80;20154;-85
2021/12/05 04:50:17;;;;;;;;;;;;;;;0.81;76.89;99036.64;1745170;81;20575;-84
2021/12/05 04:52:42;;;;;;;;;;;;;;;0.76;76.92;99034.89;1721242;81;20184;-85
2021/12/05 04:55:13;;;;;;;;;;;;;;;0.77;77.02;99043.05;1738562;81;20116;-83
2021/12/05 04:57:39;;;;;;;;;;;;;;;0.70;77.35;99042.23;1737372;81;20129;-85
2021/12/05 05:00:09;;;;;;;;;;;;;;;0.73;77.29;99036.43;1734489;80;20216;-85
2021/12/05 05:02:37;;;;;;;;;;;;;;;0.78;77.01;99041.63;1746132;80;20125;-83
2021/12/05 05:05:05;;;;;;;;;;;;;;;0.70;77.37;99040.94;1741109;81;20739;-84
2021/12/05 05:07:31;;;;;;;;;;;;;;;0.58;77.71;99048.39;1740125;81;20205;-82
2021/12/05 05:10:02;;;;;;;;;;;;;;;0.61;77.82;99055.13;1743634;81;21037;-84
2021/12/05 05:12:32;;;;;;;;;;;;;;;0.53;78.09;99057.83;1741204;80;20137;-85
2021/12/05 05:14:57;;;;;;;;;;;;;;;0.49;78.65;99050.40;1744650;81;20173;-85
2021/12/05 05:17:26;;;;;;;;;;;;;;;0.58;78.13;99056.66;1737651;80;20158;-86
2021/12/05 05:19:57;;;;;;;;;;;;;;;0.57;78.36;99057.11;1749335;81;20173;-86
2021/12/05 05:22:42;;;;;;;;;;;;;;;0.60;78.27;99055.58;1746792;81;20125;-87
2021/12/05 05:49:19;;;;;;;;;;;;;;;0.78;77.40;99042.08;1754363;79;20119;-85
2021/12/05 05:51:42;;;;;;;;;;;;;;;0.71;77.45;99038.70;1735156;81;20242;-84
2021/12/05 05:54:08;;;;;;;;;;;;;;;0.60;77.93;99043.89;1750715;80;20315;-84
2021/12/05 05:56:35;;;;;;;;;;;;;;;0.57;78.02;99037.63;1746265;81;20178;-85
2021/12/05 05:59:24;;;;;;;;;;;;;;;0.58;77.98;99038.00;1745656;81;20134;-84
2021/12/05 06:02:03;;;;;;;;;;;;;;;0.62;77.94;99039.42;1739988;80;20132;-86
2021/12/05 06:04:13;;;;;;;;;;;;;;;0.59;78.18;99042.25;1737460;81;20151;-85
2021/12/05 06:06:41;;;;;;;;;;;;;;;0.62;78.06;99043.31;1736103;80;20645;-87
2021/12/05 06:09:08;;;;;;;;;;;;;;;0.63;78.07;99047.55;1742880;80;20784;-87
2021/12/05 06:11:38;;;;;;;;;;;;;;;0.68;77.88;99052.38;1723618;80;20123;-84
2021/12/05 06:14:05;;;;;;;;;;;;;;;0.65;78.05;99045.67;1742285;81;21176;-87
2021/12/05 06:16:32;;;;;;;;;;;;;;;0.71;78.08;99049.09;1726934;80;20141;-84
2021/12/05 06:18:59;;;;;;;;;;;;;;;0.66;78.19;99046.00;1737164;80;20150;-84
2021/12/05 06:21:25;;;;;;;;;;;;;;;0.74;77.98;99044.11;1735447;80;20184;-85
2021/12/05 06:23:54;;;;;;;;;;;;;;;0.77;77.89;99048.25;1737329;80;20825;-84
2021/12/05 06:26:23;;;;;;;;;;;;;;;0.75;78.15;99049.66;1741493;80;20156;-85
2021/12/05 06:29:15;;;;;;;;;;;;;;;0.81;78.05;99052.23;1750236;80;20158;-85
2021/12/05 06:32:20;;;;;;;;;;;;;;;0.73;78.32;99059.36;1732924;81;20750;-88
2021/12/05 06:39:42;;;;;;;;;;;;;;;0.86;77.97;99059.22;1749726;81;20436;-84
2021/12/05 06:47:13;;;;;;;;;;;;;;;0.86;78.00;99061.81;1699036;83;20115;-86
2021/12/05 06:49:40;;;;;;;;;;;;;;;0.83;78.22;99068.07;1703985;82;20201;-85
2021/12/05 06:52:09;;;;;;;;;;;;;;;0.92;78.03;99073.48;1700927;83;21053;-86
2021/12/05 06:54:39;;;;;;;;;;;;;;;0.83;78.33;99069.85;1701769;83;20995;-88
2021/12/05 06:57:07;;;;;;;;;;;;;;;0.78;78.50;99068.06;1696661;83;20154;-86
2021/12/05 06:59:33;;;;;;;;;;;;;;;0.87;78.38;99068.64;1711424;83;20188;-84
2021/12/05 07:01:58;;;;;;;;;;;;;;;0.96;78.13;99076.20;1692978;82;20210;-83
2021/12/05 07:06:54;;;;;;;;;;;;;;;0.89;78.52;99095.36;1694905;82;20534;-85
2021/12/05 07:09:21;;;;;;;;;;;;;;;0.71;79.22;99090.66;1708618;82;20133;-85
2021/12/05 07:12:02;;;;;;;;;;;;;;;0.67;79.63;99099.63;1704095;83;20197;-84
2021/12/05 07:17:07;;;;;;;;;;;;;;;0.53;80.53;99105.89;1699237;82;20794;-87
2021/12/05 07:22:01;;;;;;;;;;;;;;;0.55;80.82;99100.58;1700805;82;20198;-84
2021/12/05 07:24:40;;;;;;;;;;;;;;;0.59;80.86;99100.70;1700203;83;20139;-86
2021/12/05 07:40:26;;;;;;;;;;;;;;;0.75;80.05;99107.31;1703047;83;20315;-87
2021/12/05 07:42:52;;;;;;;;;;;;;;;0.67;80.29;99108.72;1691426;83;20505;-85
2021/12/05 07:45:22;;;;;;;;;;;;;;;0.63;80.50;99109.08;1668281;83;20167;-87
2021/12/05 07:47:49;;;;;;;;;;;;;;;0.60;80.94;99114.03;1705824;83;20714;-84
2021/12/05 07:50:16;;;;;;;;;;;;;;;0.64;80.60;99118.05;1718832;81;20587;-87
2021/12/05 07:52:45;;;;;;;;;;;;;;;0.83;80.51;99119.23;1696195;82;20157;-86
2021/12/05 07:55:28;;;;;;;;;;;;;;;0.88;79.98;99111.89;1710825;83;20132;-85
2021/12/05 07:58:00;;;;;;;;;;;;;;;0.93;79.63;99109.75;1700979;82;20450;-88
2021/12/05 08:00:20;;;;;;;;;;;;;;;0.81;79.95;99108.11;1692000;83;20147;-84
2021/12/05 08:16:29;;;;;;;;;;;;;;;1.04;79.95;99120.16;1697796;83;20192;-85
2021/12/05 08:18:55;;;;;;;;;;;;;;;1.21;79.57;99124.02;1696588;83;20648;-86
2021/12/05 08:21:21;;;;;;;;;;;;;;;1.16;79.12;99125.33;1711960;83;21896;-83
2021/12/05 08:23:53;;;;;;;;;;;;;;;1.21;79.28;99130.98;1698323;83;20121;-83
2021/12/05 08:26:25;;;;;;;;;;;;;;;1.14;79.54;99128.05;1695901;83;20644;-87
2021/12/05 08:29:05;;;;;;;;;;;;;;;1.13;79.66;99125.56;1694958;84;20208;-89
2021/12/05 08:31:43;;;;;;;;;;;;;;;1.16;79.53;99129.23;1697925;83;20135;-86
2021/12/05 09:38:31;;;;;;;;;;;;;;;2.25;76.18;99123.45;1714592;82;20192;-87
2021/12/05 10:09:47;;;;;;;;;;;;;;;2.65;74.42;99135.72;1677678;83;20648;-87
2021/12/05 10:14:56;;;;;;;;;;;;;;;2.65;74.52;99129.20;1711628;80;20182;-90
2021/12/05 10:37:09;;;;;;;;;;;;;;;2.93;73.29;99120.33;1743226;80;21367;-85
2021/12/05 10:39:38;;;;;;;;;;;;;;;2.76;74.06;99122.59;1750606;80;20153;-85
2021/12/05 10:42:43;;;;;;;;;;;;;;;2.63;74.31;99124.61;1739893;81;33258;-86
2021/12/05 10:44:57;;;;;;;;;;;;;;;2.66;74.90;99119.95;1729984;80;20182;-88
2021/12/05 10:47:46;;;;;;;;;;;;;;;2.57;74.95;99123.34;1745149;80;20219;-85
2021/12/05 10:50:36;;;;;;;;;;;;;;;2.69;74.66;99121.48;1745224;80;20238;-85
2021/12/05 10:53:35;;;;;;;;;;;;;;;2.69;74.55;99118.88;1685295;83;20194;-86
2021/12/05 10:56:07;;;;;;;;;;;;;;;2.61;74.28;99116.08;1721498;82;20159;-84
2021/12/05 10:58:53;;;;;;;;;;;;;;;2.62;74.33;99120.34;1729975;81;20212;-83
2021/12/05 11:01:30;;;;;;;;;;;;;;;2.68;74.58;99127.64;1764260;80;20211;-84
2021/12/05 11:04:01;;;;;;;;;;;;;;;2.70;74.51;99116.59;1736974;80;20219;-80
2021/12/05 11:06:38;;;;;;;;;;;;;;;2.69;74.39;99111.06;1727108;81;20169;-84
2021/12/05 11:09:13;;;;;;;;;;;;;;;2.83;73.86;99115.91;1732067;80;20166;-83
2021/12/05 11:11:40;;;;;;;;;;;;;;;2.72;73.79;99104.73;1732236;80;20177;-87
2021/12/05 11:14:14;;;;;;;;;;;;;;;2.79;73.97;99109.30;1734743;81;20516;-83
2021/12/05 11:16:48;;;;;;;;;;;;;;;2.94;73.60;99109.77;1736611;80;20145;-80
2021/12/05 11:19:22;;;;;;;;;;;;;;;3.03;73.12;99108.13;1735994;81;20116;-80
2021/12/05 11:21:57;;;;;;;;;;;;;;;2.95;72.60;99114.48;1736788;81;20547;-85
2021/12/05 11:24:31;;;;;;;;;;;;;;;2.94;72.28;99110.25;1739485;80;20169;-84
2021/12/05 11:27:10;;;;;;;;;;;;;;;2.84;72.88;99120.17;1720410;81;20178;-82
2021/12/05 11:29:54;;;;;;;;;;;;;;;2.97;72.82;99121.72;1735242;80;20630;-82
2021/12/05 11:32:33;;;;;;;;;;;;;;;3.03;72.45;99127.22;1735868;80;20636;-80
2021/12/05 11:34:53;;;;;;;;;;;;;;;3.04;72.34;99122.82;1731671;80;20657;-79
2021/12/05 11:37:22;;;;;;;;;;;;;;;3.12;72.18;99125.58;1739358;81;20109;-85
2021/12/05 11:39:50;;;;;;;;;;;;;;;3.16;71.89;99124.36;1727712;81;20165;-83
2021/12/05 11:42:20;;;;;;;;;;;;;;;3.26;72.14;99120.95;1736054;81;20669;-78
2021/12/05 11:44:49;;;;;;;;;;;;;;;3.18;71.77;99123.73;1730568;80;20171;-80
2021/12/05 11:47:18;;;;;;;;;;;;;;;3.00;72.50;99122.77;1702379;82;20187;-80
2021/12/05 11:49:43;;;;;;;;;;;;;;;2.88;73.08;99118.93;1720738;81;21374;-81
2021/12/05 11:52:11;;;;;;;;;;;;;;;2.98;73.25;99116.83;1725626;81;20210;-83
2021/12/05 11:54:40;;;;;;;;;;;;;;;3.06;73.07;99118.28;1724114;82;21219;-83
2021/12/05 11:57:20;;;;;;;;;;;;;;;2.88;73.68;99113.72;1724091;81;20202;-83
2021/12/05 11:59:48;;;;;;;;;;;;;;;2.72;74.55;99105.58;1721602;82;20205;-82
2021/12/05 12:02:37;;;;;;;;;;;;;;;2.73;75.26;99103.30;1717413;81;20199;-83
2021/12/05 12:05:06;;;;;;;;;;;;;;;2.56;76.64;99103.92;1714156;82;20242;-81
2021/12/05 12:07:51;;;;;;;;;;;;;;;2.62;77.13;99091.67;1703141;81;21088;-81
2021/12/05 12:10:26;;;;;;;;;;;;;;;2.57;78.37;99084.25;1715073;81;20165;-85
2021/12/05 12:12:57;;;;;;;;;;;;;;;2.53;78.88;99084.64;1713871;82;20164;-81
2021/12/05 12:15:24;;;;;;;;;;;;;;;2.56;79.09;99096.11;1730001;81;20163;-80
2021/12/05 12:17:54;;;;;;;;;;;;;;;2.64;79.45;99102.33;1738016;81;20190;-81
2021/12/05 12:20:22;;;;;;;;;;;;;;;2.78;79.10;99105.05;1737231;81;20357;-80
2021/12/05 12:22:52;;;;;;;;;;;;;;;2.78;79.90;99108.97;1723178;82;20179;-82
2021/12/05 12:25:21;;;;;;;;;;;;;;;2.73;80.22;99105.91;1724773;82;20226;-83
2021/12/05 12:27:50;;;;;;;;;;;;;;;2.68;81.47;99100.27;1721140;82;20172;-84
2021/12/05 12:30:24;;;;;;;;;;;;;;;2.63;82.25;99101.97;1721717;82;20244;-81
2021/12/05 12:32:49;;;;;;;;;;;;;;;2.52;82.71;99103.38;1718627;82;20154;-81
2021/12/05 12:35:18;;;;;;;;;;;;;;;2.38;83.74;99098.03;1699479;81;20241;-83
2021/12/05 12:38:07;;;;;;;;;;;;;;;2.34;84.08;99092.72;1741788;81;20174;-80
2021/12/05 12:40:38;;;;;;;;;;;;;;;2.34;84.86;99094.02;1739401;81;20517;-83
2021/12/05 12:43:05;;;;;;;;;;;;;;;2.37;84.66;99101.58;1742441;81;20180;-83
2021/12/05 12:45:39;;;;;;;;;;;;;;;2.42;85.49;99105.91;1680017;83;21076;-81
2021/12/05 12:48:12;;;;;;;;;;;;;;;2.39;86.12;99110.08;1707464;83;20183;-83
2021/12/05 12:50:52;;;;;;;;;;;;;;;2.35;86.02;99112.61;1711467;83;20223;-80
2021/12/05 12:53:26;;;;;;;;;;;;;;;2.36;86.33;99119.45;1682824;83;20578;-84
2021/12/05 12:56:05;;;;;;;;;;;;;;;2.30;86.83;99114.76;1698751;82;20201;-80
2021/12/05 12:58:55;;;;;;;;;;;;;;;2.39;86.49;99123.11;1697739;83;20124;-82
2021/12/05 13:12:52;;;;;;;;;;;;;;;2.20;87.31;99112.59;1696176;84;20137;-80
2021/12/05 13:15:29;;;;;;;;;;;;;;;2.25;87.58;99113.03;1693192;84;20144;-79
2021/12/05 13:18:00;;;;;;;;;;;;;;;2.22;87.92;99128.91;1694227;83;20229;-79
2021/12/05 13:20:53;;;;;;;;;;;;;;;2.20;88.16;99130.34;1693644;83;20357;-80
2021/12/05 13:23:42;;;;;;;;;;;;;;;2.18;88.52;99137.95;1693959;82;20244;-81
2021/12/05 13:26:24;;;;;;;;;;;;;;;2.17;88.76;99151.92;1692956;83;22165;-80
2021/12/05 13:29:14;;;;;;;;;;;;;;;2.10;89.10;99155.03;1691554;83;20113;-79
2021/12/05 13:31:48;;;;;;;;;;;;;;;2.26;88.47;99162.39;1693431;84;20149;-80
2021/12/05 13:34:20;;;;;;;;;;;;;;;2.38;87.93;99164.92;1707024;81;20214;-82
2021/12/05 13:36:51;;;;;;;;;;;;;;;2.25;88.70;99170.33;1698081;82;20265;-82
2021/12/05 13:39:46;;;;;;;;;;;;;;;2.02;90.08;99173.52;1699215;82;21164;-80
2021/12/05 13:42:24;;;;;;;;;;;;;;;1.95;90.47;99171.91;1679419;82;20435;-82
2021/12/05 13:45:05;;;;;;;;;;;;;;;1.92;91.57;99177.36;1707840;80;20163;-80
2021/12/05 13:47:37;;;;;;;;;;;;;;;1.88;91.83;99185.06;1737566;80;20203;-86
2021/12/05 13:50:22;;;;;;;;;;;;;;;1.86;92.47;99185.67;1736405;80;20197;-83
2021/12/05 13:52:52;;;;;;;;;;;;;;;2.08;91.31;99180.38;1739983;80;21868;-82
2021/12/05 13:55:52;;;;;;;;;;;;;;;2.17;90.95;99187.89;1719070;81;20189;-81
2021/12/05 13:58:40;;;;;;;;;;;;;;;2.08;91.49;99185.59;1739372;81;20137;-83
2021/12/05 14:01:35;;;;;;;;;;;;;;;1.98;92.28;99189.88;1736990;81;20114;-83
2021/12/05 14:04:10;;;;;;;;;;;;;;;1.91;92.71;99193.92;1738061;80;20628;-81
2021/12/05 14:07:05;;;;;;;;;;;;;;;2.03;92.27;99189.51;1738173;80;20156;-82
2021/12/05 14:09:40;;;;;;;;;;;;;;;1.97;92.98;99189.52;1734228;80;20200;-78
2021/12/05 14:12:27;;;;;;;;;;;;;;;1.78;94.13;99186.29;1736036;81;20302;-79
2021/12/05 14:14:54;;;;;;;;;;;;;;;1.83;94.14;99180.71;1714552;81;20481;-84
2021/12/05 14:17:23;;;;;;;;;;;;;;;1.59;96.00;99186.95;1690103;84;20205;-85
2021/12/05 14:19:52;;;;;;;;;;;;;;;1.80;95.20;99183.08;1713820;81;21190;-82
2021/12/05 14:22:21;;;;;;;;;;;;;;;1.96;94.59;99178.78;1738968;80;20151;-83
2021/12/05 14:24:53;;;;;;;;;;;;;;;1.84;96.06;99187.58;1746134;80;20221;-80
2021/12/05 14:27:23;;;;;;;;;;;;;;;1.82;96.70;99187.70;1738237;81;20111;-82
2021/12/05 14:29:49;;;;;;;;;;;;;;;1.86;96.45;99181.77;1741201;80;20158;-79
2021/12/05 14:32:23;;;;;;;;;;;;;;;1.86;97.00;99183.06;1743712;80;21174;-82
2021/12/05 14:34:58;;;;;;;;;;;;;;;1.91;96.56;99183.52;1740422;81;20219;-78
2021/12/05 14:37:28;;;;;;;;;;;;;;;1.92;96.62;99193.80;1706588;81;20580;-81
2021/12/05 14:40:00;;;;;;;;;;;;;;;1.85;97.05;99189.22;1745405;81;21032;-82
2021/12/05 14:42:32;;;;;;;;;;;;;;;1.96;96.96;99186.59;1745404;80;20188;-78
2021/12/05 14:45:03;;;;;;;;;;;;;;;1.95;97.24;99192.73;1745917;80;21203;-81
2021/12/05 14:47:37;;;;;;;;;;;;;;;1.97;97.14;99190.37;1742094;80;20138;-82
2021/12/05 14:50:11;;;;;;;;;;;;;;;2.15;95.98;99196.32;1742597;80;20166;-81
2021/12/05 14:52:40;;;;;;;;;;;;;;;2.10;95.63;99195.39;1738862;80;20825;-80
2021/12/05 14:55:12;;;;;;;;;;;;;;;1.96;96.51;99199.13;1737927;80;20224;-79
2021/12/05 14:57:45;;;;;;;;;;;;;;;1.92;96.47;99202.91;1740011;80;20206;-84
2021/12/05 15:00:24;;;;;;;;;;;;;;;1.90;96.65;99206.13;1734278;80;20176;-84
2021/12/05 15:02:59;;;;;;;;;;;;;;;1.82;97.47;99208.98;1718063;80;20509;-78
2021/12/05 15:05:29;;;;;;;;;;;;;;;1.74;97.56;99207.84;1733134;80;20168;-79
2021/12/05 15:08:10;;;;;;;;;;;;;;;2.03;96.46;99212.45;1733304;80;20197;-81
2021/12/05 15:10:36;;;;;;;;;;;;;;;2.17;95.55;99201.41;1720604;80;21095;-80
2021/12/05 15:13:04;;;;;;;;;;;;;;;2.15;95.92;99206.25;1716466;81;20422;-82
2021/12/05 15:15:33;;;;;;;;;;;;;;;2.13;95.78;99204.26;1721163;80;20480;-83
2021/12/05 15:17:58;;;;;;;;;;;;;;;2.15;95.71;99204.95;1735540;80;20212;-82
2021/12/05 15:20:27;;;;;;;;;;;;;;;2.20;95.45;99203.76;1733325;80;20121;-81
2021/12/05 15:22:55;;;;;;;;;;;;;;;2.22;95.43;99208.35;1736057;80;21110;-82
2021/12/05 15:25:23;;;;;;;;;;;;;;;2.18;95.82;99210.88;1737094;80;20282;-86
2021/12/05 15:27:51;;;;;;;;;;;;;;;2.17;95.96;99211.34;1719069;80;20158;-86
2021/12/05 15:30:22;;;;;;;;;;;;;;;2.18;95.78;99226.51;1734106;80;20234;-81
2021/12/05 15:33:00;;;;;;;;;;;;;;;2.16;96.10;99221.42;1734765;80;20359;-82
2021/12/05 15:35:34;;;;;;;;;;;;;;;2.24;95.57;99218.20;1739508;80;20139;-80
2021/12/05 15:38:14;;;;;;;;;;;;;;;2.18;95.68;99221.30;1733687;80;20582;-83
2021/12/05 15:40:41;;;;;;;;;;;;;;;2.24;95.57;99226.82;1720427;82;20170;-84
2021/12/05 15:43:11;;;;;;;;;;;;;;;2.40;95.03;99221.66;1726458;80;20210;-80
2021/12/05 15:45:37;;;;;;;;;;;;;;;2.23;95.51;99217.83;1732423;80;20191;-83
2021/12/05 15:48:05;;;;;;;;;;;;;;;2.27;95.76;99223.13;1729250;80;21162;-81
2021/12/05 15:50:33;;;;;;;;;;;;;;;2.31;95.55;99227.14;1708265;81;20460;-81
2021/12/05 15:53:01;;;;;;;;;;;;;;;2.24;95.57;99233.34;1734425;80;20204;-81
2021/12/05 15:55:45;;;;;;;;;;;;;;;2.36;95.34;99230.67;1735691;80;20214;-82
2021/12/05 15:58:20;;;;;;;;;;;;;;;2.47;94.94;99227.54;1740360;80;20204;-84
2021/12/05 16:00:53;;;;;;;;;;;;;;;2.46;94.70;99223.75;1712417;80;20197;-82
2021/12/05 16:03:26;;;;;;;;;;;;;;;2.40;94.69;99217.27;1736054;80;20181;-80
2021/12/05 16:05:54;;;;;;;;;;;;;;;2.33;95.55;99230.44;1733837;80;20232;-84
2021/12/05 16:08:22;;;;;;;;;;;;;;;2.12;96.81;99236.45;1737729;80;20716;-83
2021/12/05 16:10:57;;;;;;;;;;;;;;;2.17;97.68;99237.87;1700986;81;20186;-81
2021/12/05 16:13:25;;;;;;;;;;;;;;;2.21;97.31;99232.28;1727156;81;21085;-81
2021/12/05 16:15:55;;;;;;;;;;;;;;;2.20;97.46;99237.62;1738153;80;20100;-83
2021/12/05 16:18:25;;;;;;;;;;;;;;;2.30;97.46;99238.50;1729819;80;20629;-86
2021/12/05 16:20:55;;;;;;;;;;;;;;;2.32;97.19;99238.73;1711509;80;20132;-79
2021/12/05 16:23:26;;;;;;;;;;;;;;;2.29;97.42;99238.17;1734531;80;20218;-79
2021/12/05 16:26:13;;;;;;;;;;;;;;;2.24;97.25;99246.84;1734270;80;21259;-83
2021/12/05 16:28:53;;;;;;;;;;;;;;;2.30;97.39;99241.95;1737057;80;20129;-79
2021/12/05 16:31:26;;;;;;;;;;;;;;;2.32;97.52;99235.31;1719687;80;20178;-84
2021/12/05 16:34:04;;;;;;;;;;;;;;;2.44;96.60;99238.22;1735425;80;20183;-82
2021/12/05 16:36:37;;;;;;;;;;;;;;;2.39;96.57;99240.35;1732835;80;20150;-87
2021/12/05 16:39:15;;;;;;;;;;;;;;;2.43;96.26;99235.73;1727100;80;21133;-85
2021/12/05 16:41:53;;;;;;;;;;;;;;;2.40;96.59;99243.80;1725028;81;20306;-83
2021/12/05 16:44:25;;;;;;;;;;;;;;;2.46;96.29;99240.20;1734033;80;20189;-82
2021/12/05 16:46:55;;;;;;;;;;;;;;;2.30;97.02;99241.11;1733074;80;20201;-83
2021/12/05 16:49:23;;;;;;;;;;;;;;;2.18;97.70;99246.04;1728337;80;20175;-86
2021/12/05 16:51:58;;;;;;;;;;;;;;;2.12;98.11;99244.27;1734089;80;21081;-84
2021/12/05 16:54:29;;;;;;;;;;;;;;;2.24;97.84;99239.03;1735887;80;20147;-83
2021/12/05 16:57:13;;;;;;;;;;;;;;;2.36;97.36;99235.39;1741244;80;20231;-82
2021/12/05 16:59:51;;;;;;;;;;;;;;;2.26;97.61;99243.62;1728342;80;21374;-83
2021/12/05 17:02:24;;;;;;;;;;;;;;;2.29;98.21;99249.89;1710003;80;20176;-82
2021/12/05 17:05:03;;;;;;;;;;;;;;;2.40;97.45;99252.44;1734987;80;21081;-86
2021/12/05 17:07:56;;;;;;;;;;;;;;;2.33;97.69;99264.30;1729908;80;20165;-80
2021/12/05 17:10:25;;;;;;;;;;;;;;;2.31;97.96;99266.22;1725699;80;20146;-80
2021/12/05 17:12:56;;;;;;;;;;;;;;;2.18;98.44;99263.78;1710576;80;20257;-84
2021/12/05 17:15:26;;;;;;;;;;;;;;;2.10;99.38;99257.90;1722679;81;20228;-81
2021/12/05 17:18:00;;;;;;;;;;;;;;;2.15;99.28;99257.04;1728752;80;22044;-79
2021/12/05 17:20:26;;;;;;;;;;;;;;;2.28;98.96;99262.56;1728869;80;20194;-81
2021/12/05 17:22:55;;;;;;;;;;;;;;;2.27;98.63;99259.59;1730950;80;20753;-81
2021/12/05 17:25:28;;;;;;;;;;;;;;;2.31;98.65;99266.22;1721569;80;20483;-80
2021/12/05 17:27:57;;;;;;;;;;;;;;;2.40;98.15;99257.65;1734134;80;20506;-83
2021/12/05 17:30:25;;;;;;;;;;;;;;;2.29;98.74;99266.34;1752173;80;21858;-84
2021/12/05 17:32:51;;;;;;;;;;;;;;;2.29;98.88;99265.52;1719940;81;20176;-80
2021/12/05 17:35:16;;;;;;;;;;;;;;;2.41;98.23;99264.52;1730214;81;21332;-79
2021/12/05 17:37:48;;;;;;;;;;;;;;;2.47;97.71;99264.02;1723714;80;20138;-81
2021/12/05 17:40:14;;;;;;;;;;;;;;;2.57;97.54;99271.08;1726731;81;20259;-89
2021/12/05 17:42:45;;;;;;;;;;;;;;;2.62;97.42;99270.22;1724183;81;21906;-82
2021/12/05 17:45:11;;;;;;;;;;;;;;;2.70;97.10;99263.88;1726211;81;20549;-86
2021/12/05 17:47:37;;;;;;;;;;;;;;;2.64;96.63;99265.23;1744117;80;20324;-78
2021/12/05 17:50:07;;;;;;;;;;;;;;;2.67;97.07;99261.52;1744427;80;20863;-80
2021/12/05 17:52:33;;;;;;;;;;;;;;;2.66;97.33;99257.29;1742039;80;20230;-80
2021/12/05 17:55:05;;;;;;;;;;;;;;;2.70;97.32;99263.88;1743518;80;21087;-81
2021/12/05 17:57:38;;;;;;;;;;;;;;;2.72;97.29;99265.91;1742731;81;20523;-83
2021/12/05 18:00:14;;;;;;;;;;;;;;;2.67;97.46;99264.13;1753661;81;20193;-79
2021/12/05 18:02:47;;;;;;;;;;;;;;;2.62;97.55;99261.09;1740679;81;20152;-81
2021/12/05 18:05:21;;;;;;;;;;;;;;;2.53;98.04;99259.24;1738138;81;20122;-87
2021/12/05 18:07:49;;;;;;;;;;;;;;;2.63;98.05;99256.23;1733183;81;21238;-80
2021/12/05 18:10:20;;;;;;;;;;;;;;;2.63;97.91;99257.55;1736765;80;20134;-81
2021/12/05 18:12:49;;;;;;;;;;;;;;;2.64;98.04;99247.45;1741371;81;20488;-78
2021/12/05 18:15:23;;;;;;;;;;;;;;;2.50;98.39;99246.83;1738858;81;20187;-78
2021/12/05 18:17:50;;;;;;;;;;;;;;;2.64;97.63;99250.05;1744228;81;20178;-80